Hicks, Arkansas
Current Conditions -  °F | °C
As of 1:53 PM on Wednesday 17 Dec 2014 (Local Time) from KFYV Reporting Station
Light Rain Light Rain  
Wind Chill: 35°   Ceiling: 5000
Heat Index: 35°   Visibility: 7mi
Dew Point: 33°   Wind: 0mph
Humidity: 92%   Direction: NA
Pressure: 30.22"   Gusts: NA
Location:  35.9902°N, 94.083°W
Report Text: KFYV 171953Z 00000KT 7SM -RA BKN050 OVC080 02/01 A3022 RMK AO2 RAE1859B19UPB1859E01 SLP244 P0005 T00170006
Loading
Personal Weather Stations






























Interactive Weather Map New forecast layout! Learn more

10-Day Weather Forecast

Advertisements
Track Severe Weather on mobile